sensor_id;sensor_type;location;lat;lon;timestamp;P1;durP1;ratioP1;P2;durP2;ratioP2
15764;SDS011;7983;50.744;7.086;2022-07-18T00:00:20;2.42;;;1.45;;
15764;SDS011;7983;50.744;7.086;2022-07-18T00:02:48;2.78;;;1.40;;
15764;SDS011;7983;50.744;7.086;2022-07-18T00:05:13;3.05;;;1.50;;
15764;SDS011;7983;50.744;7.086;2022-07-18T00:07:42;2.78;;;1.38;;
15764;SDS011;7983;50.744;7.086;2022-07-18T00:10:09;1.55;;;1.20;;
15764;SDS011;7983;50.744;7.086;2022-07-18T00:12:37;1.60;;;1.17;;
15764;SDS011;7983;50.744;7.086;2022-07-18T00:15:06;2.28;;;1.30;;
15764;SDS011;7983;50.744;7.086;2022-07-18T00:17:32;1.80;;;1.25;;
15764;SDS011;7983;50.744;7.086;2022-07-18T00:19:58;1.80;;;1.17;;
15764;SDS011;7983;50.744;7.086;2022-07-18T00:22:24;1.73;;;1.10;;
15764;SDS011;7983;50.744;7.086;2022-07-18T00:24:49;2.65;;;1.40;;
15764;SDS011;7983;50.744;7.086;2022-07-18T00:27:17;1.77;;;1.30;;
15764;SDS011;7983;50.744;7.086;2022-07-18T00:29:43;3.40;;;1.35;;
15764;SDS011;7983;50.744;7.086;2022-07-18T00:32:11;1.67;;;1.17;;
15764;SDS011;7983;50.744;7.086;2022-07-18T00:34:39;1.77;;;1.15;;
15764;SDS011;7983;50.744;7.086;2022-07-18T00:37:07;1.98;;;1.00;;
15764;SDS011;7983;50.744;7.086;2022-07-18T00:39:33;2.20;;;1.23;;
15764;SDS011;7983;50.744;7.086;2022-07-18T00:42:00;1.75;;;1.30;;
15764;SDS011;7983;50.744;7.086;2022-07-18T00:44:27;2.30;;;1.20;;
15764;SDS011;7983;50.744;7.086;2022-07-18T00:46:54;1.45;;;1.20;;
15764;SDS011;7983;50.744;7.086;2022-07-18T00:49:27;2.72;;;1.30;;
15764;SDS011;7983;50.744;7.086;2022-07-18T00:51:53;1.88;;;1.20;;
15764;SDS011;7983;50.744;7.086;2022-07-18T00:54:19;2.03;;;1.20;;
15764;SDS011;7983;50.744;7.086;2022-07-18T00:56:46;1.73;;;1.15;;
15764;SDS011;7983;50.744;7.086;2022-07-18T00:59:15;1.25;;;1.10;;
15764;SDS011;7983;50.744;7.086;2022-07-18T01:01:43;2.28;;;1.33;;
15764;SDS011;7983;50.744;7.086;2022-07-18T01:04:11;2.25;;;1.17;;
15764;SDS011;7983;50.744;7.086;2022-07-18T01:06:47;1.83;;;1.13;;
15764;SDS011;7983;50.744;7.086;2022-07-18T01:09:14;1.50;;;1.02;;
15764;SDS011;7983;50.744;7.086;2022-07-18T01:11:41;1.83;;;1.13;;
15764;SDS011;7983;50.744;7.086;2022-07-18T01:14:11;2.53;;;1.38;;
15764;SDS011;7983;50.744;7.086;2022-07-18T01:16:40;1.50;;;1.10;;
15764;SDS011;7983;50.744;7.086;2022-07-18T01:19:09;2.67;;;1.20;;
15764;SDS011;7983;50.744;7.086;2022-07-18T01:21:35;1.40;;;1.10;;
15764;SDS011;7983;50.744;7.086;2022-07-18T01:24:02;2.53;;;1.27;;
15764;SDS011;7983;50.744;7.086;2022-07-18T01:26:28;1.95;;;1.10;;
15764;SDS011;7983;50.744;7.086;2022-07-18T01:28:56;2.65;;;1.30;;
15764;SDS011;7983;50.744;7.086;2022-07-18T01:31:23;1.55;;;1.20;;
15764;SDS011;7983;50.744;7.086;2022-07-18T01:33:53;1.58;;;1.02;;
15764;SDS011;7983;50.744;7.086;2022-07-18T01:36:21;1.80;;;1.00;;
15764;SDS011;7983;50.744;7.086;2022-07-18T01:38:49;3.83;;;1.13;;
15764;SDS011;7983;50.744;7.086;2022-07-18T01:41:17;2.30;;;1.23;;
15764;SDS011;7983;50.744;7.086;2022-07-18T01:43:43;1.52;;;1.20;;
15764;SDS011;7983;50.744;7.086;2022-07-18T01:46:09;2.08;;;1.15;;
15764;SDS011;7983;50.744;7.086;2022-07-18T01:48:39;4.50;;;1.30;;
15764;SDS011;7983;50.744;7.086;2022-07-18T01:51:05;2.92;;;1.30;;
15764;SDS011;7983;50.744;7.086;2022-07-18T01:53:35;2.08;;;1.20;;
15764;SDS011;7983;50.744;7.086;2022-07-18T01:56:04;1.90;;;1.33;;
15764;SDS011;7983;50.744;7.086;2022-07-18T01:58:30;1.58;;;1.10;;
15764;SDS011;7983;50.744;7.086;2022-07-18T02:00:56;2.20;;;1.20;;
15764;SDS011;7983;50.744;7.086;2022-07-18T02:03:21;2.03;;;1.00;;
15764;SDS011;7983;50.744;7.086;2022-07-18T02:05:49;2.42;;;1.08;;
15764;SDS011;7983;50.744;7.086;2022-07-18T02:08:17;2.05;;;1.25;;
15764;SDS011;7983;50.744;7.086;2022-07-18T02:10:43;2.70;;;1.27;;
15764;SDS011;7983;50.744;7.086;2022-07-18T02:13:11;2.28;;;1.33;;
15764;SDS011;7983;50.744;7.086;2022-07-18T02:15:39;2.20;;;1.10;;
15764;SDS011;7983;50.744;7.086;2022-07-18T02:18:04;2.83;;;1.33;;
15764;SDS011;7983;50.744;7.086;2022-07-18T02:20:32;1.98;;;1.38;;
15764;SDS011;7983;50.744;7.086;2022-07-18T02:23:00;1.98;;;1.10;;
15764;SDS011;7983;50.744;7.086;2022-07-18T02:25:26;1.30;;;1.00;;
15764;SDS011;7983;50.744;7.086;2022-07-18T02:27:51;2.63;;;1.38;;
15764;SDS011;7983;50.744;7.086;2022-07-18T02:30:17;2.33;;;1.10;;
15764;SDS011;7983;50.744;7.086;2022-07-18T02:32:45;1.92;;;1.15;;
15764;SDS011;7983;50.744;7.086;2022-07-18T02:35:11;2.97;;;1.35;;
15764;SDS011;7983;50.744;7.086;2022-07-18T02:37:41;1.58;;;1.10;;
15764;SDS011;7983;50.744;7.086;2022-07-18T02:40:07;2.00;;;1.20;;
15764;SDS011;7983;50.744;7.086;2022-07-18T02:42:34;1.30;;;1.10;;
15764;SDS011;7983;50.744;7.086;2022-07-18T02:45:06;1.63;;;1.10;;
15764;SDS011;7983;50.744;7.086;2022-07-18T02:47:33;1.98;;;1.27;;
15764;SDS011;7983;50.744;7.086;2022-07-18T02:50:00;1.98;;;1.10;;
15764;SDS011;7983;50.744;7.086;2022-07-18T02:52:28;1.40;;;1.00;;
15764;SDS011;7983;50.744;7.086;2022-07-18T02:54:54;1.92;;;1.33;;
15764;SDS011;7983;50.744;7.086;2022-07-18T02:57:21;1.92;;;1.30;;
15764;SDS011;7983;50.744;7.086;2022-07-18T02:59:50;2.75;;;1.08;;
15764;SDS011;7983;50.744;7.086;2022-07-18T03:02:16;2.13;;;1.20;;
15764;SDS011;7983;50.744;7.086;2022-07-18T03:04:41;2.15;;;1.20;;
15764;SDS011;7983;50.744;7.086;2022-07-18T03:07:09;1.40;;;1.10;;
15764;SDS011;7983;50.744;7.086;2022-07-18T03:09:35;1.80;;;1.20;;
15764;SDS011;7983;50.744;7.086;2022-07-18T03:12:00;1.95;;;1.40;;
15764;SDS011;7983;50.744;7.086;2022-07-18T03:14:26;2.00;;;1.30;;
15764;SDS011;7983;50.744;7.086;2022-07-18T03:16:52;1.30;;;1.15;;
15764;SDS011;7983;50.744;7.086;2022-07-18T03:19:17;1.65;;;1.10;;
15764;SDS011;7983;50.744;7.086;2022-07-18T03:21:46;1.20;;;1.10;;
15764;SDS011;7983;50.744;7.086;2022-07-18T03:24:12;2.15;;;1.25;;
15764;SDS011;7983;50.744;7.086;2022-07-18T03:26:39;5.07;;;3.90;;
15764;SDS011;7983;50.744;7.086;2022-07-18T03:29:08;4.65;;;2.90;;
15764;SDS011;7983;50.744;7.086;2022-07-18T03:31:34;3.28;;;2.50;;
15764;SDS011;7983;50.744;7.086;2022-07-18T03:34:02;3.28;;;2.10;;
15764;SDS011;7983;50.744;7.086;2022-07-18T03:36:28;14.90;;;10.55;;
15764;SDS011;7983;50.744;7.086;2022-07-18T03:38:54;10.43;;;8.73;;
15764;SDS011;7983;50.744;7.086;2022-07-18T03:41:21;6.50;;;4.40;;
15764;SDS011;7983;50.744;7.086;2022-07-18T03:43:47;4.07;;;3.10;;
15764;SDS011;7983;50.744;7.086;2022-07-18T03:46:13;3.47;;;2.47;;
15764;SDS011;7983;50.744;7.086;2022-07-18T03:48:43;3.15;;;2.22;;
15764;SDS011;7983;50.744;7.086;2022-07-18T03:51:11;2.67;;;2.00;;
15764;SDS011;7983;50.744;7.086;2022-07-18T03:53:42;3.22;;;2.10;;
15764;SDS011;7983;50.744;7.086;2022-07-18T03:56:08;3.40;;;2.00;;
15764;SDS011;7983;50.744;7.086;2022-07-18T03:58:34;3.05;;;1.75;;
15764;SDS011;7983;50.744;7.086;2022-07-18T04:01:00;2.33;;;1.70;;
15764;SDS011;7983;50.744;7.086;2022-07-18T04:03:26;2.22;;;1.67;;
15764;SDS011;7983;50.744;7.086;2022-07-18T04:05:51;2.30;;;1.80;;
15764;SDS011;7983;50.744;7.086;2022-07-18T04:08:17;2.83;;;2.00;;
15764;SDS011;7983;50.744;7.086;2022-07-18T04:10:45;2.95;;;2.20;;
15764;SDS011;7983;50.744;7.086;2022-07-18T04:13:13;3.22;;;1.55;;
15764;SDS011;7983;50.744;7.086;2022-07-18T04:15:39;2.90;;;1.80;;
15764;SDS011;7983;50.744;7.086;2022-07-18T04:18:08;2.17;;;1.58;;
15764;SDS011;7983;50.744;7.086;2022-07-18T04:20:36;2.75;;;1.50;;
15764;SDS011;7983;50.744;7.086;2022-07-18T04:23:04;1.65;;;1.35;;
15764;SDS011;7983;50.744;7.086;2022-07-18T04:25:35;2.00;;;1.42;;
15764;SDS011;7983;50.744;7.086;2022-07-18T04:28:08;7.53;;;6.18;;
15764;SDS011;7983;50.744;7.086;2022-07-18T04:30:35;4.38;;;3.45;;
15764;SDS011;7983;50.744;7.086;2022-07-18T04:33:03;4.07;;;2.83;;
15764;SDS011;7983;50.744;7.086;2022-07-18T04:35:31;3.72;;;2.08;;
15764;SDS011;7983;50.744;7.086;2022-07-18T04:37:57;3.72;;;1.65;;
15764;SDS011;7983;50.744;7.086;2022-07-18T04:40:23;2.42;;;1.67;;
15764;SDS011;7983;50.744;7.086;2022-07-18T04:42:49;3.60;;;1.60;;
15764;SDS011;7983;50.744;7.086;2022-07-18T04:45:15;2.58;;;1.40;;
15764;SDS011;7983;50.744;7.086;2022-07-18T04:47:43;2.72;;;1.40;;
15764;SDS011;7983;50.744;7.086;2022-07-18T04:50:13;2.97;;;1.50;;
15764;SDS011;7983;50.744;7.086;2022-07-18T04:52:40;2.45;;;1.40;;
15764;SDS011;7983;50.744;7.086;2022-07-18T04:55:10;3.17;;;1.40;;
15764;SDS011;7983;50.744;7.086;2022-07-18T04:57:39;2.15;;;1.40;;
15764;SDS011;7983;50.744;7.086;2022-07-18T05:00:07;1.95;;;1.35;;
15764;SDS011;7983;50.744;7.086;2022-07-18T05:02:40;2.15;;;1.20;;
15764;SDS011;7983;50.744;7.086;2022-07-18T05:05:10;2.63;;;1.40;;
15764;SDS011;7983;50.744;7.086;2022-07-18T05:07:42;1.50;;;1.20;;
15764;SDS011;7983;50.744;7.086;2022-07-18T05:10:12;2.50;;;1.27;;
15764;SDS011;7983;50.744;7.086;2022-07-18T05:12:40;3.85;;;1.35;;
15764;SDS011;7983;50.744;7.086;2022-07-18T05:15:10;2.42;;;1.40;;
15764;SDS011;7983;50.744;7.086;2022-07-18T05:17:40;3.65;;;1.30;;
15764;SDS011;7983;50.744;7.086;2022-07-18T05:20:08;2.30;;;1.50;;
15764;SDS011;7983;50.744;7.086;2022-07-18T05:22:39;4.65;;;1.27;;
15764;SDS011;7983;50.744;7.086;2022-07-18T05:25:05;2.20;;;1.10;;
15764;SDS011;7983;50.744;7.086;2022-07-18T05:27:35;1.45;;;1.20;;
15764;SDS011;7983;50.744;7.086;2022-07-18T05:30:04;2.10;;;1.20;;
15764;SDS011;7983;50.744;7.086;2022-07-18T05:32:33;2.67;;;1.50;;
15764;SDS011;7983;50.744;7.086;2022-07-18T05:35:01;3.35;;;1.50;;
15764;SDS011;7983;50.744;7.086;2022-07-18T05:37:27;2.03;;;1.20;;
15764;SDS011;7983;50.744;7.086;2022-07-18T05:39:53;1.80;;;1.30;;
15764;SDS011;7983;50.744;7.086;2022-07-18T05:42:18;2.67;;;1.75;;
15764;SDS011;7983;50.744;7.086;2022-07-18T05:44:44;2.80;;;1.60;;
15764;SDS011;7983;50.744;7.086;2022-07-18T05:47:10;1.80;;;1.40;;
15764;SDS011;7983;50.744;7.086;2022-07-18T05:49:36;2.03;;;1.42;;
15764;SDS011;7983;50.744;7.086;2022-07-18T05:52:02;2.88;;;1.70;;
15764;SDS011;7983;50.744;7.086;2022-07-18T05:54:28;2.45;;;1.42;;
15764;SDS011;7983;50.744;7.086;2022-07-18T05:56:53;2.67;;;1.42;;
15764;SDS011;7983;50.744;7.086;2022-07-18T05:59:19;2.42;;;1.48;;
15764;SDS011;7983;50.744;7.086;2022-07-18T06:01:46;1.60;;;1.30;;
15764;SDS011;7983;50.744;7.086;2022-07-18T06:04:12;3.13;;;1.60;;
15764;SDS011;7983;50.744;7.086;2022-07-18T06:06:38;1.88;;;1.30;;
15764;SDS011;7983;50.744;7.086;2022-07-18T06:09:07;4.18;;;1.20;;
15764;SDS011;7983;50.744;7.086;2022-07-18T06:11:33;1.88;;;1.30;;
15764;SDS011;7983;50.744;7.086;2022-07-18T06:13:59;2.38;;;1.15;;
15764;SDS011;7983;50.744;7.086;2022-07-18T06:16:30;1.75;;;1.20;;
15764;SDS011;7983;50.744;7.086;2022-07-18T06:18:58;2.10;;;1.35;;
15764;SDS011;7983;50.744;7.086;2022-07-18T06:21:26;1.77;;;1.13;;
15764;SDS011;7983;50.744;7.086;2022-07-18T06:23:54;2.25;;;1.35;;
15764;SDS011;7983;50.744;7.086;2022-07-18T06:26:20;2.20;;;1.20;;
15764;SDS011;7983;50.744;7.086;2022-07-18T06:28:46;2.55;;;1.33;;
15764;SDS011;7983;50.744;7.086;2022-07-18T06:31:12;2.20;;;1.20;;
15764;SDS011;7983;50.744;7.086;2022-07-18T06:33:41;2.22;;;1.13;;
15764;SDS011;7983;50.744;7.086;2022-07-18T06:36:09;1.60;;;1.40;;
15764;SDS011;7983;50.744;7.086;2022-07-18T06:38:38;4.78;;;1.40;;
15764;SDS011;7983;50.744;7.086;2022-07-18T06:41:05;2.85;;;1.67;;
15764;SDS011;7983;50.744;7.086;2022-07-18T06:43:33;2.83;;;1.27;;
15764;SDS011;7983;50.744;7.086;2022-07-18T06:45:59;2.55;;;1.27;;
15764;SDS011;7983;50.744;7.086;2022-07-18T06:48:24;2.20;;;1.15;;
15764;SDS011;7983;50.744;7.086;2022-07-18T06:50:53;1.40;;;1.08;;
15764;SDS011;7983;50.744;7.086;2022-07-18T06:53:19;2.50;;;1.05;;
15764;SDS011;7983;50.744;7.086;2022-07-18T06:55:44;1.35;;;1.08;;
15764;SDS011;7983;50.744;7.086;2022-07-18T06:58:12;2.50;;;1.20;;
15764;SDS011;7983;50.744;7.086;2022-07-18T07:00:40;3.67;;;1.50;;
15764;SDS011;7983;50.744;7.086;2022-07-18T07:03:06;2.30;;;1.50;;
15764;SDS011;7983;50.744;7.086;2022-07-18T07:05:36;1.90;;;1.30;;
15764;SDS011;7983;50.744;7.086;2022-07-18T07:08:04;1.80;;;1.30;;
15764;SDS011;7983;50.744;7.086;2022-07-18T07:10:29;1.52;;;1.10;;
15764;SDS011;7983;50.744;7.086;2022-07-18T07:12:57;3.72;;;1.23;;
15764;SDS011;7983;50.744;7.086;2022-07-18T07:15:23;2.08;;;1.00;;
15764;SDS011;7983;50.744;7.086;2022-07-18T07:17:50;1.77;;;1.08;;
15764;SDS011;7983;50.744;7.086;2022-07-18T07:20:16;2.53;;;1.05;;
15764;SDS011;7983;50.744;7.086;2022-07-18T07:22:56;4.07;;;1.45;;
15764;SDS011;7983;50.744;7.086;2022-07-18T07:25:23;2.60;;;1.27;;
15764;SDS011;7983;50.744;7.086;2022-07-18T07:27:52;1.60;;;1.10;;
15764;SDS011;7983;50.744;7.086;2022-07-18T07:30:19;4.03;;;1.13;;
15764;SDS011;7983;50.744;7.086;2022-07-18T07:32:45;1.77;;;0.95;;
15764;SDS011;7983;50.744;7.086;2022-07-18T07:35:13;2.15;;;1.00;;
15764;SDS011;7983;50.744;7.086;2022-07-18T07:37:43;3.45;;;1.20;;
15764;SDS011;7983;50.744;7.086;2022-07-18T07:40:23;3.13;;;1.00;;
15764;SDS011;7983;50.744;7.086;2022-07-18T07:42:51;2.15;;;1.23;;
15764;SDS011;7983;50.744;7.086;2022-07-18T07:45:17;2.20;;;0.98;;
15764;SDS011;7983;50.744;7.086;2022-07-18T07:47:43;2.63;;;1.08;;
15764;SDS011;7983;50.744;7.086;2022-07-18T07:50:12;1.90;;;0.98;;
15764;SDS011;7983;50.744;7.086;2022-07-18T07:52:38;1.63;;;0.90;;
15764;SDS011;7983;50.744;7.086;2022-07-18T07:55:04;3.78;;;1.27;;
15764;SDS011;7983;50.744;7.086;2022-07-18T07:57:30;2.42;;;1.00;;
15764;SDS011;7983;50.744;7.086;2022-07-18T07:59:56;5.55;;;1.38;;
15764;SDS011;7983;50.744;7.086;2022-07-18T08:02:24;4.82;;;1.13;;
15764;SDS011;7983;50.744;7.086;2022-07-18T08:04:50;2.88;;;1.23;;
15764;SDS011;7983;50.744;7.086;2022-07-18T08:07:18;2.38;;;1.40;;
15764;SDS011;7983;50.744;7.086;2022-07-18T08:09:45;1.45;;;1.00;;
15764;SDS011;7983;50.744;7.086;2022-07-18T08:12:11;3.70;;;1.08;;
15764;SDS011;7983;50.744;7.086;2022-07-18T08:14:37;2.67;;;1.23;;
15764;SDS011;7983;50.744;7.086;2022-07-18T08:17:05;1.33;;;0.85;;
15764;SDS011;7983;50.744;7.086;2022-07-18T08:19:33;1.92;;;1.02;;
15764;SDS011;7983;50.744;7.086;2022-07-18T08:22:01;2.80;;;1.00;;
15764;SDS011;7983;50.744;7.086;2022-07-18T08:24:27;2.03;;;0.90;;
15764;SDS011;7983;50.744;7.086;2022-07-18T08:26:52;1.48;;;0.98;;
15764;SDS011;7983;50.744;7.086;2022-07-18T08:29:18;2.15;;;1.00;;
15764;SDS011;7983;50.744;7.086;2022-07-18T08:31:46;1.63;;;1.02;;
15764;SDS011;7983;50.744;7.086;2022-07-18T08:34:13;1.80;;;0.90;;
15764;SDS011;7983;50.744;7.086;2022-07-18T08:36:39;1.25;;;1.00;;
15764;SDS011;7983;50.744;7.086;2022-07-18T08:39:05;1.42;;;0.90;;
15764;SDS011;7983;50.744;7.086;2022-07-18T08:41:33;1.33;;;0.80;;
15764;SDS011;7983;50.744;7.086;2022-07-18T08:44:03;3.67;;;0.93;;
15764;SDS011;7983;50.744;7.086;2022-07-18T08:46:32;1.27;;;0.80;;
15764;SDS011;7983;50.744;7.086;2022-07-18T08:49:03;1.20;;;0.90;;
15764;SDS011;7983;50.744;7.086;2022-07-18T08:51:30;1.77;;;0.90;;
15764;SDS011;7983;50.744;7.086;2022-07-18T08:53:58;2.25;;;1.10;;
15764;SDS011;7983;50.744;7.086;2022-07-18T08:56:25;2.05;;;1.10;;
15764;SDS011;7983;50.744;7.086;2022-07-18T08:58:53;1.90;;;0.90;;
15764;SDS011;7983;50.744;7.086;2022-07-18T09:01:24;1.00;;;0.90;;
15764;SDS011;7983;50.744;7.086;2022-07-18T09:03:51;3.05;;;1.00;;
15764;SDS011;7983;50.744;7.086;2022-07-18T09:06:47;1.60;;;0.95;;
15764;SDS011;7983;50.744;7.086;2022-07-18T09:09:16;2.35;;;1.20;;
15764;SDS011;7983;50.744;7.086;2022-07-18T09:11:57;1.48;;;0.90;;
15764;SDS011;7983;50.744;7.086;2022-07-18T09:17:03;2.80;;;0.95;;
15764;SDS011;7983;50.744;7.086;2022-07-18T09:19:36;2.22;;;1.13;;
15764;SDS011;7983;50.744;7.086;2022-07-18T09:22:16;1.73;;;0.98;;
15764;SDS011;7983;50.744;7.086;2022-07-18T09:30:20;2.00;;;1.15;;
15764;SDS011;7983;50.744;7.086;2022-07-18T09:35:29;1.38;;;1.00;;
15764;SDS011;7983;50.744;7.086;2022-07-18T09:38:02;1.63;;;0.85;;
15764;SDS011;7983;50.744;7.086;2022-07-18T09:40:34;1.52;;;0.85;;
15764;SDS011;7983;50.744;7.086;2022-07-18T09:43:06;3.40;;;1.00;;
15764;SDS011;7983;50.744;7.086;2022-07-18T09:45:37;2.20;;;0.70;;
15764;SDS011;7983;50.744;7.086;2022-07-18T09:48:07;1.55;;;0.77;;
15764;SDS011;7983;50.744;7.086;2022-07-18T09:55:45;2.28;;;1.00;;
15764;SDS011;7983;50.744;7.086;2022-07-18T09:58:14;1.75;;;1.00;;
15764;SDS011;7983;50.744;7.086;2022-07-18T10:00:42;3.00;;;0.93;;
15764;SDS011;7983;50.744;7.086;2022-07-18T10:03:08;0.80;;;0.80;;
15764;SDS011;7983;50.744;7.086;2022-07-18T10:05:35;1.35;;;0.80;;
15764;SDS011;7983;50.744;7.086;2022-07-18T10:08:04;1.60;;;1.10;;
15764;SDS011;7983;50.744;7.086;2022-07-18T10:10:32;1.85;;;1.20;;
15764;SDS011;7983;50.744;7.086;2022-07-18T10:13:01;1.02;;;0.85;;
15764;SDS011;7983;50.744;7.086;2022-07-18T10:15:31;3.00;;;1.20;;
15764;SDS011;7983;50.744;7.086;2022-07-18T10:18:03;2.28;;;0.90;;
15764;SDS011;7983;50.744;7.086;2022-07-18T10:20:38;1.42;;;0.88;;
15764;SDS011;7983;50.744;7.086;2022-07-18T10:23:20;2.40;;;0.90;;
15764;SDS011;7983;50.744;7.086;2022-07-18T10:26:15;2.25;;;0.90;;
15764;SDS011;7983;50.744;7.086;2022-07-18T10:31:26;1.77;;;0.90;;
15764;SDS011;7983;50.744;7.086;2022-07-18T10:39:15;1.25;;;0.75;;
15764;SDS011;7983;50.744;7.086;2022-07-18T10:57:31;1.25;;;0.90;;
15764;SDS011;7983;50.744;7.086;2022-07-18T11:02:32;1.52;;;1.00;;
15764;SDS011;7983;50.744;7.086;2022-07-18T11:04:59;0.70;;;0.63;;
15764;SDS011;7983;50.744;7.086;2022-07-18T11:07:25;0.93;;;0.90;;
15764;SDS011;7983;50.744;7.086;2022-07-18T11:09:51;1.80;;;0.80;;
15764;SDS011;7983;50.744;7.086;2022-07-18T11:22:50;2.35;;;0.88;;
15764;SDS011;7983;50.744;7.086;2022-07-18T11:25:17;0.82;;;0.80;;
15764;SDS011;7983;50.744;7.086;2022-07-18T11:27:43;1.00;;;0.90;;
15764;SDS011;7983;50.744;7.086;2022-07-18T11:30:09;3.33;;;0.98;;
15764;SDS011;7983;50.744;7.086;2022-07-18T11:32:40;3.05;;;0.90;;
15764;SDS011;7983;50.744;7.086;2022-07-18T11:35:07;1.38;;;0.80;;
15764;SDS011;7983;50.744;7.086;2022-07-18T11:37:33;0.90;;;0.80;;
15764;SDS011;7983;50.744;7.086;2022-07-18T11:40:07;0.80;;;0.73;;
15764;SDS011;7983;50.744;7.086;2022-07-18T11:42:34;1.65;;;1.05;;
15764;SDS011;7983;50.744;7.086;2022-07-18T11:45:08;1.48;;;0.80;;
15764;SDS011;7983;50.744;7.086;2022-07-18T11:47:48;2.75;;;1.00;;
15764;SDS011;7983;50.744;7.086;2022-07-18T11:50:26;2.40;;;1.10;;
15764;SDS011;7983;50.744;7.086;2022-07-18T11:53:00;2.22;;;1.02;;
15764;SDS011;7983;50.744;7.086;2022-07-18T11:55:34;1.40;;;0.80;;
15764;SDS011;7983;50.744;7.086;2022-07-18T11:58:07;1.70;;;1.00;;
15764;SDS011;7983;50.744;7.086;2022-07-18T12:00:41;1.77;;;0.90;;
15764;SDS011;7983;50.744;7.086;2022-07-18T12:03:14;1.13;;;0.98;;
15764;SDS011;7983;50.744;7.086;2022-07-18T12:05:46;2.40;;;1.02;;
15764;SDS011;7983;50.744;7.086;2022-07-18T12:16:36;1.30;;;0.90;;
15764;SDS011;7983;50.744;7.086;2022-07-18T12:21:46;1.40;;;0.93;;
15764;SDS011;7983;50.744;7.086;2022-07-18T12:24:30;1.58;;;0.88;;
15764;SDS011;7983;50.744;7.086;2022-07-18T12:27:09;1.27;;;0.88;;
15764;SDS011;7983;50.744;7.086;2022-07-18T12:32:22;1.10;;;0.90;;
15764;SDS011;7983;50.744;7.086;2022-07-18T12:35:03;1.55;;;0.90;;
15764;SDS011;7983;50.744;7.086;2022-07-18T12:37:33;1.27;;;0.82;;
15764;SDS011;7983;50.744;7.086;2022-07-18T12:40:08;2.00;;;0.90;;
15764;SDS011;7983;50.744;7.086;2022-07-18T12:42:41;1.50;;;0.90;;
15764;SDS011;7983;50.744;7.086;2022-07-18T12:45:11;1.08;;;0.80;;
15764;SDS011;7983;50.744;7.086;2022-07-18T12:47:41;1.00;;;0.70;;
15764;SDS011;7983;50.744;7.086;2022-07-18T12:50:07;1.50;;;0.90;;
15764;SDS011;7983;50.744;7.086;2022-07-18T12:52:38;0.88;;;0.80;;
15764;SDS011;7983;50.744;7.086;2022-07-18T12:55:03;1.33;;;0.90;;
15764;SDS011;7983;50.744;7.086;2022-07-18T12:57:32;2.72;;;0.95;;
15764;SDS011;7983;50.744;7.086;2022-07-18T12:59:57;1.58;;;1.00;;
15764;SDS011;7983;50.744;7.086;2022-07-18T13:02:25;1.75;;;1.00;;
15764;SDS011;7983;50.744;7.086;2022-07-18T13:04:53;2.08;;;0.98;;
15764;SDS011;7983;50.744;7.086;2022-07-18T13:07:19;1.25;;;0.90;;
15764;SDS011;7983;50.744;7.086;2022-07-18T13:09:47;1.27;;;0.73;;
15764;SDS011;7983;50.744;7.086;2022-07-18T13:12:12;1.45;;;1.00;;
15764;SDS011;7983;50.744;7.086;2022-07-18T13:14:39;1.45;;;0.90;;
15764;SDS011;7983;50.744;7.086;2022-07-18T13:17:07;2.55;;;1.00;;
15764;SDS011;7983;50.744;7.086;2022-07-18T13:19:33;1.33;;;0.75;;
15764;SDS011;7983;50.744;7.086;2022-07-18T13:21:59;1.08;;;0.98;;
15764;SDS011;7983;50.744;7.086;2022-07-18T13:24:24;1.77;;;0.90;;
15764;SDS011;7983;50.744;7.086;2022-07-18T13:26:50;2.38;;;0.82;;
15764;SDS011;7983;50.744;7.086;2022-07-18T13:29:16;2.00;;;0.90;;
15764;SDS011;7983;50.744;7.086;2022-07-18T13:31:43;2.13;;;0.90;;
15764;SDS011;7983;50.744;7.086;2022-07-18T13:34:13;2.58;;;1.00;;
15764;SDS011;7983;50.744;7.086;2022-07-18T13:36:41;1.38;;;0.90;;
15764;SDS011;7983;50.744;7.086;2022-07-18T13:39:06;1.45;;;0.80;;
15764;SDS011;7983;50.744;7.086;2022-07-18T13:41:34;1.70;;;0.90;;
15764;SDS011;7983;50.744;7.086;2022-07-18T13:44:00;1.55;;;1.02;;
15764;SDS011;7983;50.744;7.086;2022-07-18T13:46:25;1.95;;;0.88;;
15764;SDS011;7983;50.744;7.086;2022-07-18T13:48:51;2.45;;;0.80;;
15764;SDS011;7983;50.744;7.086;2022-07-18T13:51:17;2.15;;;0.93;;
15764;SDS011;7983;50.744;7.086;2022-07-18T13:53:44;2.75;;;0.98;;
15764;SDS011;7983;50.744;7.086;2022-07-18T13:56:10;1.70;;;1.00;;
15764;SDS011;7983;50.744;7.086;2022-07-18T13:58:36;1.15;;;0.80;;
15764;SDS011;7983;50.744;7.086;2022-07-18T14:01:02;1.70;;;1.00;;
15764;SDS011;7983;50.744;7.086;2022-07-18T14:03:30;1.15;;;0.90;;
15764;SDS011;7983;50.744;7.086;2022-07-18T14:05:55;1.45;;;0.90;;
15764;SDS011;7983;50.744;7.086;2022-07-18T14:08:23;3.30;;;1.60;;
15764;SDS011;7983;50.744;7.086;2022-07-18T14:10:51;1.75;;;1.23;;
15764;SDS011;7983;50.744;7.086;2022-07-18T14:13:17;2.38;;;1.00;;
15764;SDS011;7983;50.744;7.086;2022-07-18T14:15:42;3.97;;;0.95;;
15764;SDS011;7983;50.744;7.086;2022-07-18T14:18:08;2.28;;;1.20;;
15764;SDS011;7983;50.744;7.086;2022-07-18T14:20:35;2.25;;;1.20;;
15764;SDS011;7983;50.744;7.086;2022-07-18T14:23:00;1.95;;;1.10;;
15764;SDS011;7983;50.744;7.086;2022-07-18T14:25:26;1.35;;;0.93;;
15764;SDS011;7983;50.744;7.086;2022-07-18T14:27:52;1.65;;;1.10;;
15764;SDS011;7983;50.744;7.086;2022-07-18T14:30:17;1.58;;;0.98;;
15764;SDS011;7983;50.744;7.086;2022-07-18T14:32:44;1.45;;;0.80;;
15764;SDS011;7983;50.744;7.086;2022-07-18T14:35:10;1.67;;;1.10;;
15764;SDS011;7983;50.744;7.086;2022-07-18T14:37:38;2.25;;;0.88;;
15764;SDS011;7983;50.744;7.086;2022-07-18T14:40:04;1.17;;;1.00;;
15764;SDS011;7983;50.744;7.086;2022-07-18T14:42:32;3.92;;;0.98;;
15764;SDS011;7983;50.744;7.086;2022-07-18T14:44:58;1.98;;;0.95;;
15764;SDS011;7983;50.744;7.086;2022-07-18T14:47:27;1.92;;;1.30;;
15764;SDS011;7983;50.744;7.086;2022-07-18T14:49:59;1.60;;;1.10;;
15764;SDS011;7983;50.744;7.086;2022-07-18T14:52:27;2.17;;;0.90;;
15764;SDS011;7983;50.744;7.086;2022-07-18T14:54:53;3.13;;;0.98;;
15764;SDS011;7983;50.744;7.086;2022-07-18T14:57:18;3.25;;;1.10;;
15764;SDS011;7983;50.744;7.086;2022-07-18T14:59:46;2.58;;;1.00;;
15764;SDS011;7983;50.744;7.086;2022-07-18T15:02:17;2.08;;;1.13;;
15764;SDS011;7983;50.744;7.086;2022-07-18T15:04:45;2.40;;;1.67;;
15764;SDS011;7983;50.744;7.086;2022-07-18T15:07:10;2.22;;;1.60;;
15764;SDS011;7983;50.744;7.086;2022-07-18T15:09:36;1.55;;;1.45;;
15764;SDS011;7983;50.744;7.086;2022-07-18T15:12:04;2.35;;;1.30;;
15764;SDS011;7983;50.744;7.086;2022-07-18T15:14:33;1.98;;;1.25;;
15764;SDS011;7983;50.744;7.086;2022-07-18T15:17:01;1.20;;;1.10;;
15764;SDS011;7983;50.744;7.086;2022-07-18T15:19:27;1.73;;;1.55;;
15764;SDS011;7983;50.744;7.086;2022-07-18T15:21:53;2.22;;;1.38;;
15764;SDS011;7983;50.744;7.086;2022-07-18T15:24:18;1.50;;;1.00;;
15764;SDS011;7983;50.744;7.086;2022-07-18T15:26:44;1.80;;;1.30;;
15764;SDS011;7983;50.744;7.086;2022-07-18T15:29:10;2.15;;;1.20;;
15764;SDS011;7983;50.744;7.086;2022-07-18T15:31:35;1.95;;;1.48;;
15764;SDS011;7983;50.744;7.086;2022-07-18T15:34:03;1.90;;;1.40;;
15764;SDS011;7983;50.744;7.086;2022-07-18T15:36:29;1.45;;;1.10;;
15764;SDS011;7983;50.744;7.086;2022-07-18T15:38:57;2.42;;;1.10;;
15764;SDS011;7983;50.744;7.086;2022-07-18T15:41:22;3.22;;;1.55;;
15764;SDS011;7983;50.744;7.086;2022-07-18T15:43:50;1.73;;;1.13;;
15764;SDS011;7983;50.744;7.086;2022-07-18T15:46:16;1.63;;;1.10;;
15764;SDS011;7983;50.744;7.086;2022-07-18T15:48:43;1.73;;;1.13;;
15764;SDS011;7983;50.744;7.086;2022-07-18T15:51:09;1.38;;;0.90;;
15764;SDS011;7983;50.744;7.086;2022-07-18T15:53:37;1.35;;;0.90;;
15764;SDS011;7983;50.744;7.086;2022-07-18T15:56:05;1.70;;;0.98;;
15764;SDS011;7983;50.744;7.086;2022-07-18T15:58:31;1.77;;;1.00;;
15764;SDS011;7983;50.744;7.086;2022-07-18T16:01:02;3.88;;;1.75;;
15764;SDS011;7983;50.744;7.086;2022-07-18T16:03:28;5.63;;;1.30;;
15764;SDS011;7983;50.744;7.086;2022-07-18T16:05:53;1.25;;;1.10;;
15764;SDS011;7983;50.744;7.086;2022-07-18T16:08:22;2.45;;;1.13;;
15764;SDS011;7983;50.744;7.086;2022-07-18T16:10:49;2.58;;;1.10;;